sensor_id;sensor_type;location;lat;lon;timestamp;P1;durP1;ratioP1;P2;durP2;ratioP2
1779;SDS011;10019;46.670;14.260;2022-07-06T00:01:15;5.40;;;4.90;;
1779;SDS011;10019;46.670;14.260;2022-07-06T00:03:47;5.27;;;4.77;;
1779;SDS011;10019;46.670;14.260;2022-07-06T00:06:18;8.70;;;5.00;;
1779;SDS011;10019;46.670;14.260;2022-07-06T00:08:52;7.00;;;4.70;;
1779;SDS011;10019;46.670;14.260;2022-07-06T00:11:23;7.30;;;4.80;;
1779;SDS011;10019;46.670;14.260;2022-07-06T00:13:55;5.40;;;4.77;;
1779;SDS011;10019;46.670;14.260;2022-07-06T00:16:27;5.40;;;4.10;;
1779;SDS011;10019;46.670;14.260;2022-07-06T00:18:59;4.73;;;4.30;;
1779;SDS011;10019;46.670;14.260;2022-07-06T00:21:31;4.67;;;3.93;;
1779;SDS011;10019;46.670;14.260;2022-07-06T00:24:04;5.23;;;4.67;;
1779;SDS011;10019;46.670;14.260;2022-07-06T00:26:36;6.00;;;4.47;;
1779;SDS011;10019;46.670;14.260;2022-07-06T00:29:07;4.80;;;4.27;;
1779;SDS011;10019;46.670;14.260;2022-07-06T00:31:39;5.53;;;4.73;;
1779;SDS011;10019;46.670;14.260;2022-07-06T00:34:11;4.83;;;4.30;;
1779;SDS011;10019;46.670;14.260;2022-07-06T00:36:43;5.57;;;4.60;;
1779;SDS011;10019;46.670;14.260;2022-07-06T00:39:16;5.40;;;4.90;;
1779;SDS011;10019;46.670;14.260;2022-07-06T00:41:48;7.43;;;4.87;;
1779;SDS011;10019;46.670;14.260;2022-07-06T00:44:20;7.40;;;5.00;;
1779;SDS011;10019;46.670;14.260;2022-07-06T00:46:52;6.23;;;4.90;;
1779;SDS011;10019;46.670;14.260;2022-07-06T00:49:24;5.03;;;4.63;;
1779;SDS011;10019;46.670;14.260;2022-07-06T00:52:13;6.53;;;5.33;;
1779;SDS011;10019;46.670;14.260;2022-07-06T00:54:46;7.10;;;5.07;;
1779;SDS011;10019;46.670;14.260;2022-07-06T00:57:18;4.67;;;4.27;;
1779;SDS011;10019;46.670;14.260;2022-07-06T00:59:50;6.80;;;5.60;;
1779;SDS011;10019;46.670;14.260;2022-07-06T01:02:22;5.93;;;5.33;;
1779;SDS011;10019;46.670;14.260;2022-07-06T01:04:53;5.60;;;5.20;;
1779;SDS011;10019;46.670;14.260;2022-07-06T01:07:25;5.87;;;5.27;;
1779;SDS011;10019;46.670;14.260;2022-07-06T01:09:59;5.20;;;4.67;;
1779;SDS011;10019;46.670;14.260;2022-07-06T01:12:31;8.10;;;5.27;;
1779;SDS011;10019;46.670;14.260;2022-07-06T01:15:03;5.63;;;5.10;;
1779;SDS011;10019;46.670;14.260;2022-07-06T01:17:37;8.03;;;4.97;;
1779;SDS011;10019;46.670;14.260;2022-07-06T01:20:12;5.23;;;4.77;;
1779;SDS011;10019;46.670;14.260;2022-07-06T01:22:44;5.60;;;4.83;;
1779;SDS011;10019;46.670;14.260;2022-07-06T01:25:16;5.70;;;5.00;;
1779;SDS011;10019;46.670;14.260;2022-07-06T01:27:49;5.53;;;5.03;;
1779;SDS011;10019;46.670;14.260;2022-07-06T01:30:20;5.73;;;5.00;;
1779;SDS011;10019;46.670;14.260;2022-07-06T01:32:52;5.53;;;5.03;;
1779;SDS011;10019;46.670;14.260;2022-07-06T01:35:25;4.97;;;4.57;;
1779;SDS011;10019;46.670;14.260;2022-07-06T01:37:57;6.63;;;4.63;;
1779;SDS011;10019;46.670;14.260;2022-07-06T01:40:29;10.07;;;5.10;;
1779;SDS011;10019;46.670;14.260;2022-07-06T01:43:01;6.40;;;5.10;;
1779;SDS011;10019;46.670;14.260;2022-07-06T01:45:33;5.30;;;4.90;;
1779;SDS011;10019;46.670;14.260;2022-07-06T01:48:05;6.13;;;5.10;;
1779;SDS011;10019;46.670;14.260;2022-07-06T01:50:38;5.53;;;4.80;;
1779;SDS011;10019;46.670;14.260;2022-07-06T01:53:10;13.23;;;5.17;;
1779;SDS011;10019;46.670;14.260;2022-07-06T01:55:42;5.60;;;5.10;;
1779;SDS011;10019;46.670;14.260;2022-07-06T01:58:13;8.63;;;5.50;;
1779;SDS011;10019;46.670;14.260;2022-07-06T02:00:45;6.20;;;5.70;;
1779;SDS011;10019;46.670;14.260;2022-07-06T02:03:17;5.10;;;4.70;;
1779;SDS011;10019;46.670;14.260;2022-07-06T02:05:50;6.60;;;5.88;;
1779;SDS011;10019;46.670;14.260;2022-07-06T02:08:21;6.13;;;5.60;;
1779;SDS011;10019;46.670;14.260;2022-07-06T02:10:53;5.87;;;5.33;;
1779;SDS011;10019;46.670;14.260;2022-07-06T02:13:25;6.97;;;5.33;;
1779;SDS011;10019;46.670;14.260;2022-07-06T02:15:57;6.43;;;5.20;;
1779;SDS011;10019;46.670;14.260;2022-07-06T02:18:28;5.40;;;4.90;;
1779;SDS011;10019;46.670;14.260;2022-07-06T02:21:02;5.03;;;4.53;;
1779;SDS011;10019;46.670;14.260;2022-07-06T02:23:34;5.37;;;4.87;;
1779;SDS011;10019;46.670;14.260;2022-07-06T02:26:05;8.90;;;5.07;;
1779;SDS011;10019;46.670;14.260;2022-07-06T02:28:37;5.90;;;5.40;;
1779;SDS011;10019;46.670;14.260;2022-07-06T02:31:09;5.67;;;5.17;;
1779;SDS011;10019;46.670;14.260;2022-07-06T02:33:43;6.47;;;5.33;;
1779;SDS011;10019;46.670;14.260;2022-07-06T02:36:16;5.57;;;5.07;;
1779;SDS011;10019;46.670;14.260;2022-07-06T02:38:47;5.90;;;5.10;;
1779;SDS011;10019;46.670;14.260;2022-07-06T02:41:19;5.37;;;4.97;;
1779;SDS011;10019;46.670;14.260;2022-07-06T02:43:51;7.23;;;6.43;;
1779;SDS011;10019;46.670;14.260;2022-07-06T02:46:22;5.27;;;4.77;;
1779;SDS011;10019;46.670;14.260;2022-07-06T02:48:54;5.13;;;4.63;;
1779;SDS011;10019;46.670;14.260;2022-07-06T02:51:27;6.63;;;5.10;;
1779;SDS011;10019;46.670;14.260;2022-07-06T02:53:59;5.50;;;5.00;;
1779;SDS011;10019;46.670;14.260;2022-07-06T02:56:30;7.20;;;4.73;;
1779;SDS011;10019;46.670;14.260;2022-07-06T02:59:02;5.37;;;4.87;;
1779;SDS011;10019;46.670;14.260;2022-07-06T03:01:34;5.13;;;4.63;;
1779;SDS011;10019;46.670;14.260;2022-07-06T03:04:05;5.80;;;5.17;;
1779;SDS011;10019;46.670;14.260;2022-07-06T03:06:38;5.97;;;5.13;;
1779;SDS011;10019;46.670;14.260;2022-07-06T03:09:10;5.93;;;5.40;;
1779;SDS011;10019;46.670;14.260;2022-07-06T03:11:42;5.80;;;5.30;;
1779;SDS011;10019;46.670;14.260;2022-07-06T03:14:13;8.30;;;5.00;;
1779;SDS011;10019;46.670;14.260;2022-07-06T03:16:45;5.90;;;5.40;;
1779;SDS011;10019;46.670;14.260;2022-07-06T03:19:17;6.40;;;5.80;;
1779;SDS011;10019;46.670;14.260;2022-07-06T03:21:50;5.03;;;4.63;;
1779;SDS011;10019;46.670;14.260;2022-07-06T03:24:21;5.50;;;5.00;;
1779;SDS011;10019;46.670;14.260;2022-07-06T03:26:53;5.33;;;4.83;;
1779;SDS011;10019;46.670;14.260;2022-07-06T03:29:25;5.67;;;5.17;;
1779;SDS011;10019;46.670;14.260;2022-07-06T03:31:56;6.60;;;5.50;;
1779;SDS011;10019;46.670;14.260;2022-07-06T03:34:28;8.40;;;5.33;;
1779;SDS011;10019;46.670;14.260;2022-07-06T03:37:01;5.93;;;5.43;;
1779;SDS011;10019;46.670;14.260;2022-07-06T03:39:33;5.70;;;5.20;;
1779;SDS011;10019;46.670;14.260;2022-07-06T03:42:05;9.80;;;5.83;;
1779;SDS011;10019;46.670;14.260;2022-07-06T03:44:37;6.10;;;5.60;;
1779;SDS011;10019;46.670;14.260;2022-07-06T03:47:08;7.07;;;6.00;;
1779;SDS011;10019;46.670;14.260;2022-07-06T03:49:40;6.20;;;5.63;;
1779;SDS011;10019;46.670;14.260;2022-07-06T03:52:13;6.90;;;5.30;;
1779;SDS011;10019;46.670;14.260;2022-07-06T03:54:45;5.90;;;5.30;;
1779;SDS011;10019;46.670;14.260;2022-07-06T03:57:16;8.30;;;5.50;;
1779;SDS011;10019;46.670;14.260;2022-07-06T03:59:48;6.37;;;5.40;;
1779;SDS011;10019;46.670;14.260;2022-07-06T04:02:20;6.70;;;6.00;;
1779;SDS011;10019;46.670;14.260;2022-07-06T04:04:51;7.00;;;5.17;;
1779;SDS011;10019;46.670;14.260;2022-07-06T04:07:24;8.20;;;5.50;;
1779;SDS011;10019;46.670;14.260;2022-07-06T04:09:56;6.10;;;5.60;;
1779;SDS011;10019;46.670;14.260;2022-07-06T04:12:28;6.43;;;5.57;;
1779;SDS011;10019;46.670;14.260;2022-07-06T04:14:59;7.60;;;5.83;;
1779;SDS011;10019;46.670;14.260;2022-07-06T04:17:31;5.87;;;5.23;;
1779;SDS011;10019;46.670;14.260;2022-07-06T04:20:20;6.70;;;4.93;;
1779;SDS011;10019;46.670;14.260;2022-07-06T04:22:53;6.03;;;5.50;;
1779;SDS011;10019;46.670;14.260;2022-07-06T04:25:25;6.90;;;5.17;;
1779;SDS011;10019;46.670;14.260;2022-07-06T04:27:57;6.20;;;5.60;;
1779;SDS011;10019;46.670;14.260;2022-07-06T04:30:29;6.63;;;5.80;;
1779;SDS011;10019;46.670;14.260;2022-07-06T04:33:00;6.07;;;5.57;;
1779;SDS011;10019;46.670;14.260;2022-07-06T04:35:32;7.60;;;6.73;;
1779;SDS011;10019;46.670;14.260;2022-07-06T04:38:05;6.10;;;5.50;;
1779;SDS011;10019;46.670;14.260;2022-07-06T04:40:37;6.10;;;5.60;;
1779;SDS011;10019;46.670;14.260;2022-07-06T04:43:09;6.47;;;5.87;;
1779;SDS011;10019;46.670;14.260;2022-07-06T04:45:40;6.27;;;5.77;;
1779;SDS011;10019;46.670;14.260;2022-07-06T04:48:12;6.40;;;5.70;;
1779;SDS011;10019;46.670;14.260;2022-07-06T04:50:44;6.53;;;5.93;;
1779;SDS011;10019;46.670;14.260;2022-07-06T04:53:17;7.77;;;6.07;;
1779;SDS011;10019;46.670;14.260;2022-07-06T04:55:48;6.53;;;5.93;;
1779;SDS011;10019;46.670;14.260;2022-07-06T04:58:20;7.10;;;6.40;;
1779;SDS011;10019;46.670;14.260;2022-07-06T05:00:52;6.27;;;5.67;;
1779;SDS011;10019;46.670;14.260;2022-07-06T05:03:24;5.97;;;5.47;;
1779;SDS011;10019;46.670;14.260;2022-07-06T05:05:55;6.03;;;5.53;;
1779;SDS011;10019;46.670;14.260;2022-07-06T05:08:28;6.90;;;6.07;;
1779;SDS011;10019;46.670;14.260;2022-07-06T05:11:00;7.73;;;5.70;;
1779;SDS011;10019;46.670;14.260;2022-07-06T05:13:32;6.03;;;5.50;;
1779;SDS011;10019;46.670;14.260;2022-07-06T05:16:04;7.90;;;5.83;;
1779;SDS011;10019;46.670;14.260;2022-07-06T05:18:36;6.40;;;5.80;;
1779;SDS011;10019;46.670;14.260;2022-07-06T05:21:07;6.87;;;6.10;;
1779;SDS011;10019;46.670;14.260;2022-07-06T05:23:40;6.47;;;5.97;;
1779;SDS011;10019;46.670;14.260;2022-07-06T05:26:12;6.10;;;5.60;;
1779;SDS011;10019;46.670;14.260;2022-07-06T05:28:44;6.53;;;5.60;;
1779;SDS011;10019;46.670;14.260;2022-07-06T05:31:15;6.53;;;5.57;;
1779;SDS011;10019;46.670;14.260;2022-07-06T05:33:47;6.60;;;6.10;;
1779;SDS011;10019;46.670;14.260;2022-07-06T05:36:19;6.00;;;5.50;;
1779;SDS011;10019;46.670;14.260;2022-07-06T05:38:52;7.97;;;6.27;;
1779;SDS011;10019;46.670;14.260;2022-07-06T05:41:23;8.57;;;5.40;;
1779;SDS011;10019;46.670;14.260;2022-07-06T05:43:55;6.73;;;4.90;;
1779;SDS011;10019;46.670;14.260;2022-07-06T05:46:27;6.00;;;5.50;;
1779;SDS011;10019;46.670;14.260;2022-07-06T05:48:59;7.27;;;5.70;;
1779;SDS011;10019;46.670;14.260;2022-07-06T05:51:48;7.20;;;5.67;;
1779;SDS011;10019;46.670;14.260;2022-07-06T05:54:22;6.10;;;5.60;;
1779;SDS011;10019;46.670;14.260;2022-07-06T05:56:53;5.77;;;5.27;;
1779;SDS011;10019;46.670;14.260;2022-07-06T05:59:25;6.13;;;5.53;;
1779;SDS011;10019;46.670;14.260;2022-07-06T06:01:57;6.47;;;5.87;;
1779;SDS011;10019;46.670;14.260;2022-07-06T06:04:28;6.30;;;5.80;;
1779;SDS011;10019;46.670;14.260;2022-07-06T06:07:00;5.30;;;4.90;;
1779;SDS011;10019;46.670;14.260;2022-07-06T06:09:33;5.87;;;5.37;;
1779;SDS011;10019;46.670;14.260;2022-07-06T06:12:05;5.20;;;4.80;;
1779;SDS011;10019;46.670;14.260;2022-07-06T06:14:37;6.40;;;5.80;;
1779;SDS011;10019;46.670;14.260;2022-07-06T06:17:09;5.40;;;5.00;;
1779;SDS011;10019;46.670;14.260;2022-07-06T06:19:41;6.43;;;5.30;;
1779;SDS011;10019;46.670;14.260;2022-07-06T06:22:13;5.93;;;5.33;;
1779;SDS011;10019;46.670;14.260;2022-07-06T06:24:46;5.97;;;5.40;;
1779;SDS011;10019;46.670;14.260;2022-07-06T06:27:18;6.13;;;5.53;;
1779;SDS011;10019;46.670;14.260;2022-07-06T06:29:49;5.87;;;5.37;;
1779;SDS011;10019;46.670;14.260;2022-07-06T06:32:21;6.13;;;4.80;;
1779;SDS011;10019;46.670;14.260;2022-07-06T06:34:53;8.60;;;5.00;;
1779;SDS011;10019;46.670;14.260;2022-07-06T06:37:24;5.60;;;5.00;;
1779;SDS011;10019;46.670;14.260;2022-07-06T06:39:58;4.90;;;4.50;;
1779;SDS011;10019;46.670;14.260;2022-07-06T06:42:29;6.20;;;5.23;;
1779;SDS011;10019;46.670;14.260;2022-07-06T06:45:01;5.10;;;4.70;;
1779;SDS011;10019;46.670;14.260;2022-07-06T06:47:33;5.27;;;4.77;;
1779;SDS011;10019;46.670;14.260;2022-07-06T06:50:05;6.47;;;5.03;;
1779;SDS011;10019;46.670;14.260;2022-07-06T06:52:37;8.33;;;4.93;;
1779;SDS011;10019;46.670;14.260;2022-07-06T06:55:10;5.43;;;4.93;;
1779;SDS011;10019;46.670;14.260;2022-07-06T06:57:42;5.53;;;4.90;;
1779;SDS011;10019;46.670;14.260;2022-07-06T07:00:14;5.50;;;4.83;;
1779;SDS011;10019;46.670;14.260;2022-07-06T07:02:46;5.10;;;4.70;;
1779;SDS011;10019;46.670;14.260;2022-07-06T07:05:18;5.33;;;4.93;;
1779;SDS011;10019;46.670;14.260;2022-07-06T07:07:50;5.77;;;5.37;;
1779;SDS011;10019;46.670;14.260;2022-07-06T07:10:23;5.07;;;4.67;;
1779;SDS011;10019;46.670;14.260;2022-07-06T07:12:54;5.10;;;4.53;;
1779;SDS011;10019;46.670;14.260;2022-07-06T07:15:26;5.20;;;4.80;;
1779;SDS011;10019;46.670;14.260;2022-07-06T07:17:58;5.50;;;5.00;;
1779;SDS011;10019;46.670;14.260;2022-07-06T07:20:29;5.07;;;4.67;;
1779;SDS011;10019;46.670;14.260;2022-07-06T07:23:03;5.00;;;4.60;;
1779;SDS011;10019;46.670;14.260;2022-07-06T07:25:36;4.87;;;4.37;;
1779;SDS011;10019;46.670;14.260;2022-07-06T07:28:08;5.63;;;5.13;;
1779;SDS011;10019;46.670;14.260;2022-07-06T07:30:40;4.80;;;4.40;;
1779;SDS011;10019;46.670;14.260;2022-07-06T07:33:12;6.60;;;5.50;;
1779;SDS011;10019;46.670;14.260;2022-07-06T07:35:44;5.13;;;4.67;;
1779;SDS011;10019;46.670;14.260;2022-07-06T07:38:15;5.43;;;4.80;;
1779;SDS011;10019;46.670;14.260;2022-07-06T07:40:48;5.40;;;5.00;;
1779;SDS011;10019;46.670;14.260;2022-07-06T07:43:20;4.83;;;4.43;;
1779;SDS011;10019;46.670;14.260;2022-07-06T07:45:52;4.50;;;4.10;;
1779;SDS011;10019;46.670;14.260;2022-07-06T07:48:23;4.83;;;4.40;;
1779;SDS011;10019;46.670;14.260;2022-07-06T07:50:55;5.10;;;4.70;;
1779;SDS011;10019;46.670;14.260;2022-07-06T07:53:27;4.70;;;4.30;;
1779;SDS011;10019;46.670;14.260;2022-07-06T07:56:00;5.10;;;4.70;;
1779;SDS011;10019;46.670;14.260;2022-07-06T07:58:32;5.70;;;4.30;;
1779;SDS011;10019;46.670;14.260;2022-07-06T08:01:04;4.83;;;4.33;;
1779;SDS011;10019;46.670;14.260;2022-07-06T08:03:36;5.03;;;4.63;;
1779;SDS011;10019;46.670;14.260;2022-07-06T08:06:07;4.80;;;4.40;;
1779;SDS011;10019;46.670;14.260;2022-07-06T08:08:39;4.50;;;4.20;;
1779;SDS011;10019;46.670;14.260;2022-07-06T08:11:12;4.13;;;3.83;;
1779;SDS011;10019;46.670;14.260;2022-07-06T08:13:44;5.37;;;4.87;;
1779;SDS011;10019;46.670;14.260;2022-07-06T08:16:16;5.30;;;4.80;;
1779;SDS011;10019;46.670;14.260;2022-07-06T08:18:48;4.77;;;4.47;;
1779;SDS011;10019;46.670;14.260;2022-07-06T08:21:20;5.10;;;4.60;;
1779;SDS011;10019;46.670;14.260;2022-07-06T08:23:52;4.63;;;4.33;;
1779;SDS011;10019;46.670;14.260;2022-07-06T08:26:26;4.20;;;3.90;;
1779;SDS011;10019;46.670;14.260;2022-07-06T08:28:58;4.40;;;4.00;;
1779;SDS011;10019;46.670;14.260;2022-07-06T08:31:30;4.53;;;4.13;;
1779;SDS011;10019;46.670;14.260;2022-07-06T08:34:04;6.20;;;3.93;;
1779;SDS011;10019;46.670;14.260;2022-07-06T08:36:35;4.40;;;4.00;;
1779;SDS011;10019;46.670;14.260;2022-07-06T08:39:07;4.90;;;4.50;;
1779;SDS011;10019;46.670;14.260;2022-07-06T08:41:41;6.07;;;4.30;;
1779;SDS011;10019;46.670;14.260;2022-07-06T08:44:15;4.20;;;3.90;;
1779;SDS011;10019;46.670;14.260;2022-07-06T08:46:47;4.67;;;4.27;;
1779;SDS011;10019;46.670;14.260;2022-07-06T08:49:20;4.20;;;3.87;;
1779;SDS011;10019;46.670;14.260;2022-07-06T08:51:52;8.33;;;4.57;;
1779;SDS011;10019;46.670;14.260;2022-07-06T08:54:24;5.43;;;4.10;;
1779;SDS011;10019;46.670;14.260;2022-07-06T08:56:57;4.30;;;3.90;;
1779;SDS011;10019;46.670;14.260;2022-07-06T08:59:29;4.70;;;4.40;;
1779;SDS011;10019;46.670;14.260;2022-07-06T09:02:02;4.57;;;4.17;;
1779;SDS011;10019;46.670;14.260;2022-07-06T09:04:34;4.30;;;4.00;;
1779;SDS011;10019;46.670;14.260;2022-07-06T09:07:06;4.40;;;4.10;;
1779;SDS011;10019;46.670;14.260;2022-07-06T09:09:38;4.23;;;3.83;;
1779;SDS011;10019;46.670;14.260;2022-07-06T09:12:12;4.30;;;4.00;;
1779;SDS011;10019;46.670;14.260;2022-07-06T09:14:44;4.67;;;4.23;;
1779;SDS011;10019;46.670;14.260;2022-07-06T09:17:16;6.47;;;4.20;;
1779;SDS011;10019;46.670;14.260;2022-07-06T09:19:47;4.27;;;3.87;;
1779;SDS011;10019;46.670;14.260;2022-07-06T09:22:26;4.60;;;4.20;;
1779;SDS011;10019;46.670;14.260;2022-07-06T09:25:02;3.60;;;3.30;;
1779;SDS011;10019;46.670;14.260;2022-07-06T09:27:40;4.07;;;3.77;;
1779;SDS011;10019;46.670;14.260;2022-07-06T09:30:13;4.20;;;3.90;;
1779;SDS011;10019;46.670;14.260;2022-07-06T09:32:46;4.23;;;3.80;;
1779;SDS011;10019;46.670;14.260;2022-07-06T09:35:20;4.80;;;4.40;;
1779;SDS011;10019;46.670;14.260;2022-07-06T09:38:00;5.17;;;4.07;;
1779;SDS011;10019;46.670;14.260;2022-07-06T09:40:33;6.40;;;4.30;;
1779;SDS011;10019;46.670;14.260;2022-07-06T09:43:14;3.97;;;3.30;;
1779;SDS011;10019;46.670;14.260;2022-07-06T09:45:49;3.90;;;3.60;;
1779;SDS011;10019;46.670;14.260;2022-07-06T09:48:22;3.50;;;3.20;;
1779;SDS011;10019;46.670;14.260;2022-07-06T09:50:55;3.70;;;3.40;;
1779;SDS011;10019;46.670;14.260;2022-07-06T09:53:28;3.73;;;3.43;;
1779;SDS011;10019;46.670;14.260;2022-07-06T09:56:00;3.70;;;3.40;;
1779;SDS011;10019;46.670;14.260;2022-07-06T09:58:36;3.93;;;3.63;;
1779;SDS011;10019;46.670;14.260;2022-07-06T10:01:09;3.90;;;3.60;;
1779;SDS011;10019;46.670;14.260;2022-07-06T10:03:41;3.80;;;3.50;;
1779;SDS011;10019;46.670;14.260;2022-07-06T10:06:12;4.00;;;3.60;;
1779;SDS011;10019;46.670;14.260;2022-07-06T10:08:44;3.90;;;3.60;;
1779;SDS011;10019;46.670;14.260;2022-07-06T10:11:16;3.60;;;3.30;;
1779;SDS011;10019;46.670;14.260;2022-07-06T10:13:50;3.70;;;3.40;;
1779;SDS011;10019;46.670;14.260;2022-07-06T10:16:22;3.27;;;2.97;;
1779;SDS011;10019;46.670;14.260;2022-07-06T10:18:53;4.60;;;4.17;;
1779;SDS011;10019;46.670;14.260;2022-07-06T10:21:26;3.97;;;3.67;;
1779;SDS011;10019;46.670;14.260;2022-07-06T10:23:57;3.80;;;3.50;;
1779;SDS011;10019;46.670;14.260;2022-07-06T10:26:30;4.20;;;3.10;;
1779;SDS011;10019;46.670;14.260;2022-07-06T10:29:05;3.67;;;3.00;;
1779;SDS011;10019;46.670;14.260;2022-07-06T10:31:38;4.10;;;3.80;;
1779;SDS011;10019;46.670;14.260;2022-07-06T10:34:12;4.53;;;3.50;;
1779;SDS011;10019;46.670;14.260;2022-07-06T10:36:48;4.90;;;3.57;;
1779;SDS011;10019;46.670;14.260;2022-07-06T10:39:33;3.70;;;3.40;;
1779;SDS011;10019;46.670;14.260;2022-07-06T10:42:39;4.00;;;3.70;;
1779;SDS011;10019;46.670;14.260;2022-07-06T10:45:13;3.43;;;3.13;;
1779;SDS011;10019;46.670;14.260;2022-07-06T10:47:46;3.80;;;3.10;;
1779;SDS011;10019;46.670;14.260;2022-07-06T10:50:18;4.80;;;3.67;;
1779;SDS011;10019;46.670;14.260;2022-07-06T10:52:50;3.90;;;3.60;;
1779;SDS011;10019;46.670;14.260;2022-07-06T10:55:32;4.00;;;3.70;;
1779;SDS011;10019;46.670;14.260;2022-07-06T10:58:04;5.10;;;3.33;;
1779;SDS011;10019;46.670;14.260;2022-07-06T11:00:51;4.03;;;3.50;;
1779;SDS011;10019;46.670;14.260;2022-07-06T11:03:30;4.20;;;3.73;;
1779;SDS011;10019;46.670;14.260;2022-07-06T11:06:05;3.90;;;3.50;;
1779;SDS011;10019;46.670;14.260;2022-07-06T11:08:46;5.00;;;3.97;;
1779;SDS011;10019;46.670;14.260;2022-07-06T11:11:23;3.70;;;3.00;;
1779;SDS011;10019;46.670;14.260;2022-07-06T11:13:56;8.33;;;3.70;;
1779;SDS011;10019;46.670;14.260;2022-07-06T11:16:33;3.57;;;3.03;;
1779;SDS011;10019;46.670;14.260;2022-07-06T11:19:07;3.20;;;3.00;;
1779;SDS011;10019;46.670;14.260;2022-07-06T11:21:43;3.80;;;3.50;;
1779;SDS011;10019;46.670;14.260;2022-07-06T11:24:17;3.40;;;2.70;;
1779;SDS011;10019;46.670;14.260;2022-07-06T11:26:50;3.43;;;3.23;;
1779;SDS011;10019;46.670;14.260;2022-07-06T11:29:25;3.90;;;3.27;;
1779;SDS011;10019;46.670;14.260;2022-07-06T11:31:59;3.10;;;2.90;;
1779;SDS011;10019;46.670;14.260;2022-07-06T11:34:34;3.00;;;2.80;;
1779;SDS011;10019;46.670;14.260;2022-07-06T11:37:07;3.20;;;3.00;;
1779;SDS011;10019;46.670;14.260;2022-07-06T11:39:39;3.17;;;2.97;;
1779;SDS011;10019;46.670;14.260;2022-07-06T11:42:14;3.43;;;3.17;;
1779;SDS011;10019;46.670;14.260;2022-07-06T11:44:47;3.47;;;3.20;;
1779;SDS011;10019;46.670;14.260;2022-07-06T11:47:29;5.77;;;3.70;;
1779;SDS011;10019;46.670;14.260;2022-07-06T11:50:02;3.60;;;3.33;;
1779;SDS011;10019;46.670;14.260;2022-07-06T11:52:34;3.13;;;2.93;;
1779;SDS011;10019;46.670;14.260;2022-07-06T11:55:05;3.80;;;3.50;;
1779;SDS011;10019;46.670;14.260;2022-07-06T11:57:37;3.20;;;3.00;;
1779;SDS011;10019;46.670;14.260;2022-07-06T12:00:10;3.40;;;3.20;;
1779;SDS011;10019;46.670;14.260;2022-07-06T12:05:41;3.57;;;3.27;;
1779;SDS011;10019;46.670;14.260;2022-07-06T12:08:13;5.60;;;3.47;;
1779;SDS011;10019;46.670;14.260;2022-07-06T12:10:45;3.13;;;2.83;;
1779;SDS011;10019;46.670;14.260;2022-07-06T12:13:16;3.30;;;3.00;;
1779;SDS011;10019;46.670;14.260;2022-07-06T12:15:48;3.80;;;3.50;;
1779;SDS011;10019;46.670;14.260;2022-07-06T12:18:20;3.70;;;3.13;;
1779;SDS011;10019;46.670;14.260;2022-07-06T12:20:53;3.50;;;3.20;;
1779;SDS011;10019;46.670;14.260;2022-07-06T12:23:25;3.57;;;3.27;;
1779;SDS011;10019;46.670;14.260;2022-07-06T12:25:57;3.20;;;3.00;;
1779;SDS011;10019;46.670;14.260;2022-07-06T12:28:29;6.63;;;3.30;;
1779;SDS011;10019;46.670;14.260;2022-07-06T12:31:01;3.70;;;3.40;;
1779;SDS011;10019;46.670;14.260;2022-07-06T12:33:33;3.00;;;2.80;;
1779;SDS011;10019;46.670;14.260;2022-07-06T12:36:10;3.60;;;3.30;;
1779;SDS011;10019;46.670;14.260;2022-07-06T12:38:43;3.10;;;2.90;;
1779;SDS011;10019;46.670;14.260;2022-07-06T12:41:26;3.10;;;2.90;;
1779;SDS011;10019;46.670;14.260;2022-07-06T12:44:03;4.73;;;3.23;;
1779;SDS011;10019;46.670;14.260;2022-07-06T12:46:36;3.10;;;2.60;;
1779;SDS011;10019;46.670;14.260;2022-07-06T12:49:13;4.07;;;3.30;;
1779;SDS011;10019;46.670;14.260;2022-07-06T12:54:41;3.50;;;3.20;;
1779;SDS011;10019;46.670;14.260;2022-07-06T12:57:14;4.60;;;3.30;;
1779;SDS011;10019;46.670;14.260;2022-07-06T12:59:48;3.47;;;2.90;;
1779;SDS011;10019;46.670;14.260;2022-07-06T13:02:29;3.13;;;2.93;;
1779;SDS011;10019;46.670;14.260;2022-07-06T13:05:02;3.27;;;2.80;;
1779;SDS011;10019;46.670;14.260;2022-07-06T13:07:38;3.00;;;2.80;;
1779;SDS011;10019;46.670;14.260;2022-07-06T13:10:14;3.53;;;3.03;;
1779;SDS011;10019;46.670;14.260;2022-07-06T13:12:47;3.40;;;3.20;;
1779;SDS011;10019;46.670;14.260;2022-07-06T13:15:18;2.87;;;2.67;;
1779;SDS011;10019;46.670;14.260;2022-07-06T13:17:50;2.93;;;2.73;;
1779;SDS011;10019;46.670;14.260;2022-07-06T13:20:22;2.97;;;2.77;;
1779;SDS011;10019;46.670;14.260;2022-07-06T13:22:55;3.23;;;2.97;;
1779;SDS011;10019;46.670;14.260;2022-07-06T13:25:27;3.00;;;2.80;;
1779;SDS011;10019;46.670;14.260;2022-07-06T13:27:59;3.03;;;2.73;;
1779;SDS011;10019;46.670;14.260;2022-07-06T13:30:31;3.50;;;3.20;;
1779;SDS011;10019;46.670;14.260;2022-07-06T13:33:02;3.10;;;2.90;;
1779;SDS011;10019;46.670;14.260;2022-07-06T13:35:34;3.10;;;2.90;;
1779;SDS011;10019;46.670;14.260;2022-07-06T13:38:07;4.17;;;2.90;;
1779;SDS011;10019;46.670;14.260;2022-07-06T13:40:39;3.47;;;3.17;;
1779;SDS011;10019;46.670;14.260;2022-07-06T13:43:11;2.83;;;2.63;;
1779;SDS011;10019;46.670;14.260;2022-07-06T13:45:43;3.37;;;3.17;;
1779;SDS011;10019;46.670;14.260;2022-07-06T13:48:14;3.20;;;2.90;;
1779;SDS011;10019;46.670;14.260;2022-07-06T13:50:46;3.90;;;2.80;;
1779;SDS011;10019;46.670;14.260;2022-07-06T13:53:19;4.10;;;3.10;;
1779;SDS011;10019;46.670;14.260;2022-07-06T13:55:51;4.07;;;2.80;;
1779;SDS011;10019;46.670;14.260;2022-07-06T13:58:23;3.60;;;3.27;;
1779;SDS011;10019;46.670;14.260;2022-07-06T14:00:54;3.07;;;2.87;;
1779;SDS011;10019;46.670;14.260;2022-07-06T14:03:26;2.70;;;2.50;;
1779;SDS011;10019;46.670;14.260;2022-07-06T14:06:00;4.17;;;3.50;;
1779;SDS011;10019;46.670;14.260;2022-07-06T14:08:34;3.40;;;3.10;;
1779;SDS011;10019;46.670;14.260;2022-07-06T14:11:06;3.50;;;3.20;;
1779;SDS011;10019;46.670;14.260;2022-07-06T14:13:39;3.50;;;3.10;;
1779;SDS011;10019;46.670;14.260;2022-07-06T14:16:11;3.20;;;3.00;;
1779;SDS011;10019;46.670;14.260;2022-07-06T14:18:42;2.93;;;2.73;;
1779;SDS011;10019;46.670;14.260;2022-07-06T14:21:14;3.40;;;3.20;;
1779;SDS011;10019;46.670;14.260;2022-07-06T14:23:47;3.67;;;2.83;;
1779;SDS011;10019;46.670;14.260;2022-07-06T14:26:19;3.37;;;3.07;;
1779;SDS011;10019;46.670;14.260;2022-07-06T14:28:51;6.77;;;3.20;;
1779;SDS011;10019;46.670;14.260;2022-07-06T14:31:23;3.73;;;3.10;;
1779;SDS011;10019;46.670;14.260;2022-07-06T14:33:54;3.07;;;2.80;;
1779;SDS011;10019;46.670;14.260;2022-07-06T14:36:26;3.07;;;2.87;;
1779;SDS011;10019;46.670;14.260;2022-07-06T14:38:59;3.17;;;2.97;;
1779;SDS011;10019;46.670;14.260;2022-07-06T14:41:31;7.50;;;3.30;;
1779;SDS011;10019;46.670;14.260;2022-07-06T14:44:03;3.23;;;3.03;;
1779;SDS011;10019;46.670;14.260;2022-07-06T14:46:35;3.43;;;2.97;;
1779;SDS011;10019;46.670;14.260;2022-07-06T14:49:06;2.70;;;2.50;;
1779;SDS011;10019;46.670;14.260;2022-07-06T14:51:38;2.97;;;2.77;;
1779;SDS011;10019;46.670;14.260;2022-07-06T14:54:11;3.13;;;2.87;;
1779;SDS011;10019;46.670;14.260;2022-07-06T14:56:43;2.90;;;2.60;;
1779;SDS011;10019;46.670;14.260;2022-07-06T14:59:14;3.13;;;2.80;;
1779;SDS011;10019;46.670;14.260;2022-07-06T15:01:46;3.13;;;2.93;;
1779;SDS011;10019;46.670;14.260;2022-07-06T15:04:18;3.03;;;2.70;;
1779;SDS011;10019;46.670;14.260;2022-07-06T15:06:49;5.00;;;2.93;;
1779;SDS011;10019;46.670;14.260;2022-07-06T15:09:23;2.80;;;2.60;;
1779;SDS011;10019;46.670;14.260;2022-07-06T15:11:56;2.83;;;2.63;;
1779;SDS011;10019;46.670;14.260;2022-07-06T15:14:28;3.73;;;2.97;;
1779;SDS011;10019;46.670;14.260;2022-07-06T15:17:00;3.00;;;2.70;;
1779;SDS011;10019;46.670;14.260;2022-07-06T15:19:32;2.80;;;2.60;;
1779;SDS011;10019;46.670;14.260;2022-07-06T15:22:04;2.73;;;2.53;;
1779;SDS011;10019;46.670;14.260;2022-07-06T15:24:37;4.10;;;3.13;;
1779;SDS011;10019;46.670;14.260;2022-07-06T15:27:09;3.77;;;3.07;;